Time;durP1;ratioP1;P1;durP2;ratioP2;P2;SDS_P1;SDS_P2;PMS_P1;PMS_P2;Temp;Humidity;BMP_temperature;BMP_pressure;BME280_temperature;BME280_humidity;BME280_pressure;Samples;Min_cycle;Max_cycle;Signal;HPM_P1;HPM_P2
2023/10/16 00:00:44;;;;;;;14.20;5.40;;;;;;;-144.05;82.47;56963.53;5041102;28;20037;-77
2023/10/16 00:03:17;;;;;;;16.05;4.95;;;;;;;-144.05;82.26;56982.66;5039576;28;20039;-78
2023/10/16 00:05:51;;;;;;;12.48;5.20;;;;;;;-144.05;82.67;57001.75;5030294;28;20028;-78
2023/10/16 00:08:18;;;;;;;8.48;4.30;;;;;;;-144.05;82.58;56986.91;5038853;28;20029;-78
2023/10/16 00:11:01;;;;;;;10.70;4.28;;;5.60;99.90;;;-144.05;82.61;57010.25;5042225;28;20371;-79
2023/10/16 00:13:36;;;;;;;9.90;4.38;;;;;;;-144.05;82.57;57003.88;5039229;28;20525;-79
2023/10/16 00:16:03;;;;;;;12.80;5.40;;;;;;;-144.05;82.94;57001.75;5039296;28;20033;-79
2023/10/16 00:18:33;;;;;;;13.23;4.97;;;;;;;-144.05;82.64;56976.28;5039984;28;20040;-79
2023/10/16 00:21:05;;;;;;;8.55;4.80;;;;;;;-144.05;82.32;56980.53;5040959;28;20025;-79
2023/10/16 00:23:37;;;;;;;8.95;4.75;;;;;;;-144.05;82.54;56976.28;5038616;28;20478;-79
2023/10/16 00:26:09;;;;;;;11.45;5.22;;;;;;;-144.05;82.46;56980.53;5046919;28;20387;-78
2023/10/16 00:28:36;;;;;;;13.68;5.15;;;;;;;-144.05;82.25;57027.25;5046845;28;20070;-79
2023/10/16 00:31:03;;;;;;;7.55;4.30;;;;;;;-144.05;82.73;57006.00;5028178;28;20036;-78
2023/10/16 00:33:31;;;;;;;12.10;5.15;;;;;;;-144.05;82.68;57001.75;5029249;28;20499;-79
2023/10/16 00:36:00;;;;;;;11.60;4.97;;;;;;;-144.05;82.64;56982.66;5029039;28;20044;-80
2023/10/16 00:38:26;;;;;;;11.15;5.57;;;;;;;-144.05;82.51;57020.88;5028394;28;20029;-78
2023/10/16 00:41:05;;;;;;;9.10;4.80;;;;;;;-144.05;82.74;56984.78;5031691;28;20451;-79
2023/10/16 00:43:34;;;;;;;11.50;4.88;;;;;;;-144.05;82.34;56976.28;5029049;28;20044;-78
2023/10/16 00:46:06;;;;;;;10.93;5.25;;;5.30;99.90;;;-144.05;82.20;56991.13;5048377;28;20104;-79
2023/10/16 00:48:39;;;;;;;13.63;5.47;;;5.60;99.90;;;-144.05;82.30;56976.28;5031240;28;20495;-78
2023/10/16 00:51:10;;;;;;;10.63;5.20;;;5.60;99.90;;;-144.05;82.42;56991.13;5028421;28;20568;-80
2023/10/16 00:53:40;;;;;;;12.45;5.15;;;;;;;-144.05;82.64;56965.66;5046775;28;20108;-79
2023/10/16 00:56:12;;;;;;;13.43;5.53;;;5.80;99.90;;;-144.05;82.57;57006.00;5044624;28;20033;-77
2023/10/16 00:58:40;;;;;;;11.93;6.13;;;;;;;-144.05;82.57;57008.13;5045293;28;20029;-77
2023/10/16 01:01:12;;;;;;;11.35;5.85;;;;;;;-144.05;82.58;56999.63;5043057;28;20025;-78
2023/10/16 01:03:41;;;;;;;9.77;4.95;;;5.70;99.90;;;-144.05;82.37;57010.25;5032817;28;20026;-78
2023/10/16 01:06:19;;;;;;;14.98;5.32;;;5.50;99.90;;;-144.05;82.76;57006.00;5025373;28;20395;-78
2023/10/16 01:08:49;;;;;;;13.25;4.50;;;5.50;99.90;;;-144.05;82.52;56982.66;5044629;28;20128;-79
2023/10/16 01:11:20;;;;;;;11.85;4.35;;;;;;;-144.05;82.26;57010.25;5042956;28;20544;-77
2023/10/16 01:13:47;;;;;;;8.73;4.55;;;;;;;-144.05;82.04;56991.13;5045482;28;20493;-77
2023/10/16 01:16:18;;;;;;;8.55;4.68;;;5.90;99.90;;;-144.05;82.56;57027.25;5043048;28;20025;-79
2023/10/16 01:18:45;;;;;;;14.02;4.75;;;;;;;-144.05;82.25;56978.41;5027846;28;20087;-78
2023/10/16 01:21:14;;;;;;;13.85;5.00;;;;;;;-144.05;81.99;56984.78;5025505;28;20049;-78
2023/10/16 01:23:44;;;;;;;11.15;5.28;;;;;;;-144.05;81.91;56957.16;5027399;28;20056;-77
2023/10/16 01:26:13;;;;;;;13.63;5.10;;;;;;;-144.05;81.94;56984.78;5025339;28;20029;-77
2023/10/16 01:28:41;;;;;;;11.13;4.47;;;;;;;-144.05;82.00;57014.50;5045357;28;20049;-77
2023/10/16 01:31:07;;;;;;;10.80;4.88;;;;;;;-144.05;82.00;57010.25;5043317;28;20486;-77
2023/10/16 01:33:34;;;;;;;11.27;5.45;;;;;;;-144.05;81.94;57006.00;5026119;28;20104;-77
2023/10/16 01:36:00;;;;;;;8.20;4.30;;;;;;;-144.05;82.02;56963.53;5042591;28;20025;-78
2023/10/16 01:38:27;;;;;;;10.50;4.80;;;;;;;-144.05;82.14;56995.38;5040444;28;20541;-78
2023/10/16 01:41:04;;;;;;;11.70;5.13;;;;;;;-144.05;82.02;56991.13;5041370;28;20134;-77
2023/10/16 01:43:33;;;;;;;11.88;5.25;;;;;;;-144.05;82.32;56984.78;5039656;28;20040;-77
2023/10/16 01:46:08;;;;;;;10.75;4.63;;;5.40;99.90;;;-144.05;82.22;56997.50;5040365;28;20036;-78
2023/10/16 01:48:46;;;;;;;10.95;4.80;;;5.30;99.90;;;-144.05;82.29;57012.38;5040188;28;20064;-77
2023/10/16 01:51:20;;;;;;;10.23;4.75;;;;;;;-144.05;82.21;56986.91;5034746;28;20037;-78
2023/10/16 01:53:47;;;;;;;14.65;5.32;;;5.90;99.90;;;-144.05;82.67;57012.38;5024010;28;20025;-77
2023/10/16 01:56:14;;;;;;;12.60;5.88;;;5.30;99.90;;;-144.05;82.87;57016.63;5021112;28;20025;-78
2023/10/16 01:58:44;;;;;;;9.02;4.88;;;4.60;99.90;;;-144.05;82.73;57016.63;5040488;28;20533;-77
2023/10/16 02:01:13;;;;;;;9.73;5.20;;;5.20;99.90;;;-144.05;83.02;57003.88;5015631;28;20165;-77
2023/10/16 02:03:43;;;;;;;11.70;5.75;;;;;;;-144.05;82.94;56978.41;5022611;28;20033;-77
2023/10/16 02:06:14;;;;;;;12.50;5.40;;;;;;;-144.05;82.92;56980.53;5033944;28;20057;-79
2023/10/16 02:08:43;;;;;;;15.98;6.47;;;;;;;-144.05;83.16;57014.50;5024245;28;20029;-79
2023/10/16 02:11:13;;;;;;;16.08;6.22;;;;;;;-144.05;83.23;57020.88;5033628;28;20033;-79
2023/10/16 02:13:41;;;;;;;14.48;6.72;;;4.30;99.90;;;-144.05;83.36;57018.75;5039917;28;20029;-77
2023/10/16 02:16:10;;;;;;;17.80;6.78;;;5.10;99.90;;;-144.05;83.75;57016.63;5020569;28;20017;-78
2023/10/16 02:18:44;;;;;;;13.45;7.22;;;5.70;99.90;;;-144.05;83.84;57003.88;5039124;28;20464;-77
2023/10/16 02:21:13;;;;;;;12.60;6.28;;;;;;;-144.05;83.76;56944.41;5033034;28;20034;-78
2023/10/16 02:23:46;;;;;;;15.38;6.70;;;;;;;-144.05;83.69;56963.53;5040029;28;20036;-78
2023/10/16 02:26:21;;;;;;;15.00;7.40;;;4.30;99.90;;;-144.05;83.79;57003.88;5014767;28;20025;-77
2023/10/16 02:28:47;;;;;;;12.02;6.18;;;;;;;-144.05;83.63;56995.38;5040002;28;20025;-77
2023/10/16 02:31:19;;;;;;;15.82;6.75;;;4.60;99.90;;;-144.05;83.54;57003.88;5037799;28;20040;-77
2023/10/16 02:33:54;;;;;;;15.63;6.78;;;5.10;99.90;;;-144.05;83.67;56999.63;5022039;28;20438;-77
2023/10/16 02:36:22;;;;;;;13.38;6.18;;;5.60;99.90;;;-144.05;83.77;56991.13;5020035;28;20100;-78
2023/10/16 02:38:50;;;;;;;16.73;7.22;;;;;;;-144.05;83.43;57001.75;5039883;28;20502;-77
2023/10/16 02:41:19;;;;;;;13.73;6.75;;;;;;;-144.05;83.51;56986.91;5037953;28;20034;-79
2023/10/16 02:43:46;;;;;;;18.77;7.45;;;;;;;-144.05;83.46;57008.13;5039103;28;20029;-79
2023/10/16 02:46:14;;;;;;;13.30;6.60;;;;;;;-144.05;83.59;56972.03;5019330;28;20028;-78
2023/10/16 02:48:42;;;;;;;13.90;6.65;;;4.50;99.90;;;-144.05;83.61;57014.50;5037614;28;20486;-77
2023/10/16 02:51:09;;;;;;;15.55;7.32;;;5.00;99.90;;;-144.05;83.69;57035.75;5019529;28;20482;-76
2023/10/16 02:53:37;;;;;;;13.82;6.68;;;;;;;-144.05;83.67;56986.91;5038020;28;20052;-77
2023/10/16 02:58:30;;;;;;;13.90;7.32;;;;;;;-144.05;83.69;56978.41;5036819;28;20064;-78
2023/10/16 03:01:06;;;;;;;15.15;6.97;;;;;;;-144.05;83.62;57006.00;5020424;28;20021;-78
2023/10/16 03:03:32;;;;;;;18.42;7.90;;;;;;;-144.05;84.07;57010.25;5019253;28;20029;-79
2023/10/16 03:06:03;;;;;;;15.73;7.60;;;;;;;-144.05;84.02;57027.25;5038255;28;20036;-77
2023/10/16 03:08:29;;;;;;;17.02;7.18;;;;;;;-144.05;83.70;57001.75;5020130;28;20120;-79
2023/10/16 03:11:05;;;;;;;13.93;6.68;;;4.60;99.90;;;-144.05;83.71;57006.00;5034873;28;20025;-78
2023/10/16 03:13:38;;;;;;;17.77;7.95;;;;;;;-144.05;83.81;56999.63;5018648;28;20037;-78
2023/10/16 03:16:23;;;;;;;14.85;7.13;;;4.60;99.90;;;-144.05;83.64;56997.50;5037104;28;20041;-78
2023/10/16 03:18:50;;;;;;;14.60;7.70;;;;;;;-144.05;83.70;56995.38;5044654;28;20117;-78
2023/10/16 03:23:46;;;;;;;15.73;8.88;;;4.40;99.90;;;-144.05;84.28;57010.25;5038011;28;20032;-78
2023/10/16 03:28:46;;;;;;;16.90;8.80;;;;;;;-144.05;84.27;56993.25;5038274;28;20456;-78
2023/10/16 03:31:12;;;;;;;15.35;8.40;;;;;;;-144.05;83.71;56980.53;5018654;28;20025;-78
2023/10/16 03:33:39;;;;;;;17.52;8.18;;;;;;;-144.05;84.24;56980.53;5019346;28;20049;-77
2023/10/16 03:36:05;;;;;;;22.23;9.82;;;;;;;-144.05;84.21;57014.50;5018687;28;20533;-77
2023/10/16 03:38:36;;;;;;;23.23;9.68;;;;;;;-144.05;84.02;56982.66;5036275;28;20045;-75
2023/10/16 03:41:12;;;;;;;17.00;8.93;;;4.60;99.90;;;-144.05;84.12;57025.13;5037360;28;20028;-78
2023/10/16 03:43:42;;;;;;;16.45;8.35;;;;;;;-144.05;83.97;56997.50;5019331;28;20040;-80
2023/10/16 03:46:10;;;;;;;16.95;8.25;;;4.60;99.90;;;-144.05;83.92;57003.88;5009013;28;20117;-79
2023/10/16 03:48:38;;;;;;;20.35;8.52;;;4.10;99.90;;;-144.05;83.96;57012.38;5034092;28;20509;-79
2023/10/16 03:51:06;;;;;;;21.15;8.40;;;;;;;-144.05;84.07;56982.66;5036791;28;20121;-77
2023/10/16 03:53:35;;;;;;;16.02;7.93;;;;;;;-144.05;83.93;57029.38;5035718;28;20029;-79
2023/10/16 03:56:04;;;;;;;15.88;8.85;;;4.50;99.90;;;-144.05;83.97;57046.38;5036307;28;20544;-78
2023/10/16 03:58:35;;;;;;;18.27;9.10;;;;;;;-144.05;83.93;57014.50;5035155;28;20154;-78
2023/10/16 04:01:10;;;;;;;20.33;8.75;;;;;;;-144.05;84.40;56995.38;5034998;28;20094;-78
2023/10/16 04:03:47;;;;;;;21.88;10.23;;;;;;;-144.05;84.30;57003.88;5035405;28;20029;-81
2023/10/16 04:06:21;;;;;;;18.50;9.57;;;4.50;99.90;;;-144.05;84.07;57014.50;5011180;28;20064;-78
2023/10/16 04:08:49;;;;;;;17.23;8.90;;;3.90;99.90;;;-144.05;84.19;56999.63;5038263;28;20055;-79
2023/10/16 04:11:16;;;;;;;17.48;9.80;;;5.20;99.90;;;-144.05;84.47;57025.13;5018244;28;20093;-79
2023/10/16 04:13:49;;;;;;;22.08;9.80;;;;;;;-144.05;84.51;56993.25;5018998;28;20404;-79
2023/10/16 04:16:54;;;;;;;22.77;9.50;;;;;;;-144.05;84.50;57023.00;5029469;28;20033;-78
2023/10/16 04:21:40;;;;;;;20.15;9.43;;;;;;;-144.05;84.50;57003.88;5034891;28;20044;-79
2023/10/16 04:30:32;;;;;;;20.20;9.45;;;4.80;99.90;;;-144.05;84.94;56995.38;5034968;28;20052;-77
2023/10/16 04:46:54;;;;;;;21.15;9.07;;;;;;;-144.05;83.95;56993.25;5037501;28;20059;-81
2023/10/16 04:49:14;;;;;;;;;;;4.50;99.90;;;-144.05;83.93;57003.88;5036045;28;20033;-79
2023/10/16 04:51:52;;;;;;;17.30;8.75;;;;;;;-144.05;83.97;56993.25;5034917;28;19991;-78
2023/10/16 04:54:57;;;;;;;22.88;9.05;;;;;;;-144.05;84.00;57010.25;5030195;28;20034;-83
2023/10/16 05:00:00;;;;;;;18.38;10.18;;;;;;;-144.05;84.24;56952.91;5036967;28;20033;-78
2023/10/16 05:02:51;;;;;;;16.42;9.35;;;;;;;-144.05;83.69;57014.50;5014069;28;20041;-79
2023/10/16 05:05:45;;;;;;;18.60;8.20;;;;;;;-144.05;83.97;57023.00;5030669;28;20033;-78
2023/10/16 05:13:55;;;;;;;17.52;8.68;;;;;;;-144.05;83.22;57008.13;5050993;28;20068;-80
2023/10/16 05:16:31;;;;;;;18.15;7.95;;;4.30;99.90;;;-144.05;83.48;57012.38;5030032;28;20029;-77
2023/10/16 05:19:03;;;;;;;16.48;8.05;;;;;;;-144.05;83.73;57012.38;5026500;28;20064;-78
2023/10/16 06:16:22;;;;;;;26.02;11.25;;;1.40;99.90;;;-144.05;83.69;57010.25;5037511;28;20037;-80
2023/10/16 06:18:49;;;;;;;24.58;11.07;;;;;;;-144.05;83.52;56986.91;5026735;28;20071;-79
2023/10/16 06:21:15;;;;;;;21.00;11.60;;;5.20;99.90;;;-144.05;83.46;56965.66;5036888;28;20464;-79
2023/10/16 06:23:49;;;;;;;27.90;11.07;;;1.90;99.90;;;-144.05;83.36;56986.91;5035012;28;20060;-79
2023/10/16 06:26:21;;;;;;;21.15;10.18;;;5.20;99.90;;;-144.05;82.94;57003.88;5030302;28;20026;-78
2023/10/16 06:28:49;;;;;;;29.00;12.85;;;5.90;99.90;;;-144.05;82.51;56997.50;5037099;28;20076;-78
2023/10/16 06:31:22;;;;;;;20.85;10.82;;;1.60;99.90;;;-144.05;82.68;56984.78;5036888;28;20025;-79
2023/10/16 06:33:58;;;;;;;23.55;11.48;;;5.40;99.90;;;-144.05;82.51;57003.88;5036333;28;20456;-79
2023/10/16 06:36:25;;;;;;;25.58;12.52;;;;;;;-144.05;82.51;56989.00;5027579;28;20025;-80
2023/10/16 06:38:52;;;;;;;22.30;10.70;;;5.50;99.90;;;-144.05;82.28;56978.41;5037794;28;20045;-79
2023/10/16 06:41:22;;;;;;;23.45;11.90;;;6.50;99.90;;;-144.05;82.59;56974.16;5027169;28;20025;-80
2023/10/16 06:43:51;;;;;;;20.98;9.75;;;1.90;99.90;;;-144.05;82.10;57010.25;5019891;28;20029;-78
2023/10/16 06:46:23;;;;;;;23.13;10.32;;;5.50;99.90;;;-144.05;81.85;56967.78;5037908;28;20044;-79
2023/10/16 06:48:53;;;;;;;30.88;11.65;;;5.50;99.90;;;-144.05;81.88;56967.78;5039811;28;20029;-81
2023/10/16 06:51:25;;;;;;;22.40;10.98;;;6.60;99.90;;;-144.05;82.15;56980.53;5038138;28;20470;-79
2023/10/16 06:54:02;;;;;;;25.25;11.52;;;6.30;99.90;;;-144.05;81.71;57003.88;5037575;28;20490;-79
2023/10/16 06:56:31;;;;;;;27.88;11.32;;;1.80;99.90;;;-144.05;81.32;56969.91;5037689;28;20049;-79
2023/10/16 06:58:57;;;;;;;23.42;10.73;;;6.80;99.90;;;-144.05;80.91;57006.00;5018904;28;20038;-79
2023/10/16 07:01:27;;;;;;;17.35;9.63;;;2.60;99.90;;;-144.05;80.66;57012.38;5035881;28;20074;-78
2023/10/16 07:03:54;;;;;;;21.83;10.20;;;2.10;99.90;;;-144.05;80.62;56976.28;5035144;28;20030;-79
2023/10/16 07:06:44;;;;;;;22.42;11.07;;;2.80;99.90;;;-144.05;79.57;57006.00;5018522;28;20048;-79
2023/10/16 07:09:12;;;;;;;23.75;10.50;;;6.90;99.90;;;-144.05;79.50;56963.53;5039057;28;20434;-80
2023/10/16 07:11:42;;;;;;;21.20;10.98;;;2.90;99.90;;;-144.05;78.99;56976.28;5036510;28;20024;-81
2023/10/16 07:14:12;;;;;;;22.27;9.88;;;3.10;99.90;;;-144.05;78.46;56963.53;5036278;28;20155;-78
2023/10/16 07:16:41;;;;;;;23.75;10.02;;;6.70;99.90;;;-144.05;78.01;56991.13;5035924;28;20086;-79
2023/10/16 07:19:08;;;;;;;18.52;9.48;;;7.70;99.90;;;-144.05;77.97;56965.66;5035954;28;20025;-79
2023/10/16 07:21:34;;;;;;;19.27;10.10;;;7.40;99.90;;;-144.05;77.96;56982.66;5036309;28;20406;-78
2023/10/16 07:24:02;;;;;;;21.60;10.55;;;7.30;99.90;;;-144.05;77.66;56986.91;5036126;28;20026;-79
2023/10/16 07:26:29;;;;;;;24.00;10.07;;;7.60;99.90;;;-144.05;76.73;56976.28;5017837;28;20022;-79
2023/10/16 07:28:58;;;;;;;19.38;10.05;;;7.10;99.90;;;-144.05;76.73;56959.28;5017661;28;20376;-78
2023/10/16 07:31:24;;;;;;;24.38;9.23;;;7.20;99.90;;;-144.05;76.26;56969.91;5035362;28;20021;-82
2023/10/16 07:33:54;;;;;;;19.73;9.63;;;8.00;99.90;;;-144.05;76.29;56997.50;5016279;28;20021;-78
2023/10/16 07:36:20;;;;;;;20.35;9.40;;;8.40;99.90;;;-144.05;76.02;57010.25;5035686;28;20028;-80
2023/10/16 07:38:48;;;;;;;21.27;8.98;;;7.00;99.90;;;-144.05;76.39;56967.78;5035416;28;20402;-80
2023/10/16 07:41:18;;;;;;;16.45;9.48;;;;;;;-144.05;76.37;56997.50;5035224;28;20402;-79
2023/10/16 07:43:48;;;;;;;21.88;9.10;;;;;;;-144.05;76.27;56959.28;5042948;28;20090;-79
2023/10/16 07:46:28;;;;;;;17.40;9.43;;;7.80;99.90;;;-144.05;76.19;56974.16;5016871;28;20045;-79
2023/10/16 07:48:54;;;;;;;20.33;10.07;;;8.60;99.90;;;-144.05;76.10;56967.78;5034627;28;20480;-80
2023/10/16 07:51:25;;;;;;;25.10;8.57;;;7.50;99.90;;;-144.05;75.11;56974.16;5034714;28;20022;-80
2023/10/16 07:53:53;;;;;;;18.77;8.43;;;7.50;99.90;;;-144.05;75.53;56989.00;5034286;28;20131;-79
2023/10/16 07:59:18;;;;;;;21.77;9.40;;;7.20;99.90;;;-144.05;75.62;56986.91;5054520;28;20097;-79
2023/10/16 08:01:59;;;;;;;16.50;8.55;;;;;;;-144.05;76.30;56959.28;5035703;28;20435;-79
2023/10/16 08:07:04;;;;;;;18.83;7.90;;;7.80;99.90;;;-144.05;75.25;56976.28;5053766;28;20029;-81
2023/10/16 08:12:18;;;;;;;17.92;7.35;;;7.30;99.90;;;-144.05;75.17;56967.78;5053784;28;20220;-79
2023/10/16 08:14:46;;;;;;;15.07;7.07;;;8.00;99.90;;;-144.05;75.11;56965.66;5054144;28;20126;-78
2023/10/16 08:17:17;;;;;;;20.00;8.50;;;7.10;99.90;;;-144.05;75.06;56957.16;5046438;28;20107;-79
2023/10/16 08:19:49;;;;;;;14.23;7.60;;;7.60;99.90;;;-144.05;74.62;56961.41;5053747;28;20488;-78
2023/10/16 08:22:16;;;;;;;17.20;7.13;;;8.70;99.90;;;-144.05;73.89;56946.53;5021723;28;20128;-80
2023/10/16 08:25:00;;;;;;;15.55;7.47;;;9.00;99.90;;;-144.05;73.83;56959.28;5053903;28;20136;-79
2023/10/16 08:30:17;;;;;;;13.45;6.30;;;9.60;99.90;;;-144.05;71.43;56959.28;5053613;28;20033;-79
2023/10/16 08:35:20;;;;;;;15.50;6.65;;;;;;;-144.05;70.64;56967.78;5046288;28;20047;-79
2023/10/16 08:37:58;;;;;;;19.35;7.30;;;8.90;99.90;;;-144.05;69.86;56935.91;5051729;28;20037;-79
2023/10/16 08:40:34;;;;;;;16.92;6.50;;;9.90;99.90;;;-144.05;69.09;56959.28;5035123;28;20519;-81
2023/10/16 08:43:08;;;;;;;14.10;6.50;;;9.60;99.90;;;-144.05;69.97;56942.28;5053278;28;20029;-80
2023/10/16 08:45:34;;;;;;;14.68;6.78;;;8.30;99.90;;;-144.05;69.14;56952.91;5055320;28;20474;-78
2023/10/16 08:48:05;;;;;;;10.85;5.97;;;9.10;99.90;;;-144.05;69.01;56942.28;5056968;28;20029;-78
2023/10/16 08:50:42;;;;;;;14.23;5.95;;;9.10;99.90;;;-144.05;69.06;56980.53;5056624;28;20029;-79
2023/10/16 08:53:31;;;;;;;15.98;6.47;;;9.80;99.90;;;-144.05;69.06;56961.41;5054541;28;20144;-79
2023/10/16 08:56:08;;;;;;;15.25;6.20;;;9.60;99.90;;;-144.05;68.87;56963.53;5038457;28;20134;-80
2023/10/16 08:58:46;;;;;;;15.10;6.00;;;9.80;99.90;;;-144.05;69.62;56955.03;5056741;28;20027;-80
2023/10/16 09:01:16;;;;;;;14.05;5.80;;;8.20;99.90;;;-144.05;69.03;56955.03;5024077;28;20025;-79
2023/10/16 09:04:08;;;;;;;12.70;6.28;;;7.60;99.90;;;-144.05;68.80;56940.16;5057200;28;20033;-79
2023/10/16 09:06:37;;;;;;;13.93;5.90;;;7.50;99.90;;;-144.05;68.01;56961.41;5047563;28;20051;-80
2023/10/16 09:09:13;;;;;;;16.58;7.15;;;9.40;99.90;;;-144.05;68.33;56921.06;5056640;28;20485;-80
2023/10/16 09:11:44;;;;;;;14.48;5.78;;;11.30;99.90;;;-144.05;68.03;56961.41;5056334;28;20092;-79
2023/10/16 09:14:17;;;;;;;14.25;5.80;;;8.40;99.90;;;-144.05;66.80;56967.78;5055478;28;20017;-77
2023/10/16 09:16:47;;;;;;;14.90;5.88;;;9.70;99.90;;;-144.05;67.05;56959.28;5056590;28;20025;-78
2023/10/16 09:19:18;;;;;;;16.40;5.82;;;7.40;99.90;;;-144.05;67.00;56957.16;5040942;28;20021;-79
2023/10/16 09:21:45;;;;;;;11.32;5.40;;;7.80;99.90;;;-144.05;66.49;56961.41;5056338;28;20100;-79
2023/10/16 09:24:14;;;;;;;10.30;5.45;;;15.10;99.90;;;-144.05;65.56;56972.03;5055649;28;20021;-78
2023/10/16 09:26:52;;;;;;;13.73;5.10;;;10.30;99.90;;;-144.05;65.13;56927.41;5038879;28;20098;-78
2023/10/16 09:29:25;;;;;;;13.73;5.75;;;14.70;99.90;;;-144.05;65.16;56976.28;5041882;28;20052;-80
2023/10/16 09:31:52;;;;;;;13.55;5.80;;;;;;;-144.05;64.75;56965.66;5055416;28;20025;-80
2023/10/16 09:34:26;;;;;;;12.10;5.10;;;10.40;99.90;;;-144.05;64.38;56942.28;5056057;28;20543;-76
2023/10/16 09:39:46;;;;;;;10.73;5.18;;;15.00;99.90;;;-144.05;62.61;56957.16;5056109;28;20036;-78
2023/10/16 09:42:12;;;;;;;9.88;4.88;;;;;;;-144.05;63.41;56965.66;5037607;28;20563;-79
2023/10/16 09:44:41;;;;;;;14.13;4.82;;;11.10;99.90;;;-144.05;63.20;56944.41;5056844;28;20036;-78
2023/10/16 09:47:26;;;;;;;12.00;4.90;;;7.70;99.90;;;-144.05;63.35;56965.66;5036639;28;20053;-79
2023/10/16 09:50:01;;;;;;;12.02;5.03;;;11.20;99.90;;;-144.05;62.06;56931.66;5054723;28;20029;-79
2023/10/16 09:52:31;;;;;;;17.13;6.72;;;8.50;99.90;;;-144.05;61.39;56944.41;5038028;28;20024;-79
2023/10/16 09:55:00;;;;;;;16.92;7.80;;;15.70;99.90;;;-144.05;59.86;56916.81;5054978;28;20056;-81
2023/10/16 09:57:31;;;;;;;11.38;5.88;;;8.10;99.90;;;-144.05;59.48;56961.41;5056061;28;20052;-78
2023/10/16 10:00:03;;;;;;;13.98;5.93;;;8.70;99.90;;;-144.05;58.80;56942.28;5055684;28;20025;-80
2023/10/16 10:02:35;;;;;;;11.23;4.85;;;12.50;99.90;;;-144.05;57.56;56938.03;5037568;28;20029;-79
2023/10/16 10:05:09;;;;;;;11.68;5.50;;;9.70;99.90;;;-144.05;56.72;56957.16;5055189;28;20025;-79
2023/10/16 10:07:47;;;;;;;11.13;5.18;;;9.40;99.90;;;-144.05;56.47;56929.53;5055951;28;20021;-79
2023/10/16 10:13:10;;;;;;;11.95;4.88;;;15.70;99.90;;;-144.05;55.16;56965.66;5054216;28;20025;-79
2023/10/16 10:15:57;;;;;;;10.30;4.85;;;9.10;99.90;;;-144.05;57.24;56929.53;5055902;28;20135;-82
2023/10/16 10:18:42;;;;;;;12.35;6.22;;;12.70;99.90;;;-144.05;56.23;56942.28;5042675;28;20191;-80
2023/10/16 10:21:18;;;;;;;11.23;5.68;;;8.70;99.90;;;-144.05;55.28;56933.78;5037188;28;20048;-82
2023/10/16 10:23:49;;;;;;;;;;;13.00;99.90;;;-144.05;54.44;56931.66;5055497;28;20040;-81
2023/10/16 10:26:20;;;;;;;10.63;5.05;;;15.80;99.90;;;-144.05;54.33;56944.41;5056786;28;20374;-80
2023/10/16 10:29:11;;;;;;;11.13;5.30;;;16.90;99.90;;;-144.05;54.31;56938.03;5055358;28;20390;-79
2023/10/16 10:31:44;;;;;;;10.70;5.40;;;10.20;99.90;;;-144.05;54.80;56942.28;5033510;28;20026;-79
2023/10/16 10:34:28;;;;;;;11.23;5.45;;;16.10;99.90;;;-144.05;53.19;56969.91;5053980;28;20048;-79
2023/10/16 10:36:54;;;;;;;13.88;5.40;;;10.20;99.90;;;-144.05;54.80;56955.03;5036074;28;20021;-79
2023/10/16 10:39:20;;;;;;;14.13;4.85;;;10.10;99.90;;;-144.05;53.44;56925.28;5056267;28;20096;-80
2023/10/16 10:41:48;;;;;;;11.60;5.07;;;15.90;99.90;;;-144.05;53.13;56942.28;5037506;28;20066;-78
2023/10/16 10:44:16;;;;;;;12.80;5.15;;;13.10;99.90;;;-144.05;54.01;56923.19;5055371;28;20029;-83
2023/10/16 10:46:49;;;;;;;9.80;4.40;;;16.10;99.90;;;-144.05;54.55;56935.91;5036978;28;20020;-80
2023/10/16 10:49:16;;;;;;;8.68;4.38;;;10.10;99.90;;;-144.05;53.88;56942.28;5056044;28;20083;-81
2023/10/16 10:51:50;;;;;;;9.38;4.50;;;13.70;99.90;;;-144.05;53.30;56933.78;5038055;28;20028;-79
2023/10/16 10:54:23;;;;;;;7.88;4.50;;;13.90;99.90;;;-144.05;52.43;56942.28;5055588;28;20036;-79
2023/10/16 10:56:50;;;;;;;10.10;3.72;;;9.80;99.90;;;-144.05;52.47;56940.16;5054898;28;20059;-79
2023/10/16 10:59:40;;;;;;;9.80;4.35;;;14.30;99.90;;;-144.05;51.44;56959.28;5056150;28;20536;-79
2023/10/16 11:04:42;;;;;;;7.70;2.70;;;9.60;99.90;;;-144.05;52.56;56967.78;5070253;28;20080;-81
2023/10/16 11:07:11;;;;;;;5.00;2.88;;;9.80;99.90;;;-144.05;53.59;56965.66;5036922;28;20036;-80
2023/10/16 11:09:42;;;;;;;7.38;3.30;;;13.90;99.90;;;-144.05;51.57;56959.28;5038433;28;20025;-79
2023/10/16 11:12:08;;;;;;;8.00;3.53;;;9.60;99.90;;;-144.05;51.97;56923.19;5052140;28;20032;-80
2023/10/16 11:14:38;;;;;;;5.57;2.92;;;14.00;99.90;;;-144.05;51.71;56904.06;5052428;28;20051;-77
2023/10/16 11:17:06;;;;;;;6.20;2.40;;;;;;;-144.05;52.01;56906.19;5034666;28;20032;-79
2023/10/16 11:19:49;;;;;;;10.23;2.50;;;14.60;99.90;;;-144.05;52.05;56944.41;5046150;28;20034;-79
2023/10/16 11:22:34;;;;;;;7.20;2.60;;;14.40;99.90;;;-144.05;49.42;56967.78;5052956;28;20028;-79
2023/10/16 11:25:02;;;;;;;8.25;2.58;;;9.90;99.90;;;-144.05;51.36;56925.28;5052569;28;20084;-81
2023/10/16 11:27:28;;;;;;;7.10;2.70;;;10.40;99.90;;;-144.05;52.19;56933.78;5056005;28;20508;-79
2023/10/16 11:29:53;;;;;;;5.55;2.25;;;10.60;99.90;;;-144.05;51.59;56957.16;5052825;28;20025;-80
2023/10/16 11:32:25;;;;;;;8.35;2.85;;;10.70;99.90;;;-144.05;50.95;56959.28;5052842;28;20104;-79
2023/10/16 11:34:59;;;;;;;9.18;2.53;;;10.20;99.90;;;-144.05;50.38;56942.28;5052231;28;20367;-77
2023/10/16 11:37:26;;;;;;;6.40;2.85;;;;;;;-144.05;51.20;56942.28;5048255;28;20060;-78
2023/10/16 11:39:57;;;;;;;7.20;2.28;;;13.80;99.90;;;-144.05;51.61;56938.03;5052766;28;20021;-78
2023/10/16 11:42:25;;;;;;;5.82;1.80;;;;;;;-144.05;51.98;56908.31;5046800;28;20071;-79
2023/10/16 11:44:52;;;;;;;7.18;2.50;;;10.80;99.90;;;-144.05;50.29;56972.03;5051959;28;20037;-78
2023/10/16 11:47:18;;;;;;;5.63;2.53;;;10.00;99.90;;;-144.05;50.85;56955.03;5053419;28;20031;-80
2023/10/16 11:49:53;;;;;;;8.82;2.78;;;15.80;99.90;;;-144.05;50.25;56961.41;5053725;28;20032;-79
2023/10/16 11:52:23;;;;;;;6.57;2.70;;;14.60;99.90;;;-144.05;49.72;56959.28;5052205;28;20099;-79
2023/10/16 11:54:57;;;;;;;7.55;2.70;;;14.40;99.90;;;-144.05;49.93;56957.16;5034102;28;20028;-79
2023/10/16 11:57:27;;;;;;;11.88;3.83;;;10.30;99.90;;;-144.05;50.19;56946.53;5045412;28;20017;-78
2023/10/16 11:59:53;;;;;;;7.93;3.28;;;;;;;-144.05;49.76;56950.78;5049083;28;20021;-79
2023/10/16 12:02:21;;;;;;;12.60;3.55;;;;;;;-144.05;49.10;56918.94;5051225;28;20123;-78
2023/10/16 12:04:48;;;;;;;7.53;2.72;;;16.00;99.90;;;-144.05;50.49;56935.91;5050579;28;20029;-78
2023/10/16 12:07:14;;;;;;;6.32;2.40;;;;;;;-144.05;52.00;56959.28;5049982;28;20083;-78
2023/10/16 12:09:51;;;;;;;7.85;2.83;;;13.50;99.90;;;-144.05;52.97;56965.66;5033534;28;20173;-78
2023/10/16 12:12:20;;;;;;;8.90;3.75;;;9.50;99.90;;;-144.05;53.76;56957.16;5048983;28;20017;-78
2023/10/16 12:14:50;;;;;;;5.60;2.13;;;8.80;99.90;;;-144.05;53.71;56972.03;5051044;28;20031;-80
2023/10/16 12:17:24;;;;;;;5.25;1.80;;;13.00;99.90;;;-144.05;53.61;56959.28;5032319;28;20025;-79
2023/10/16 12:19:52;;;;;;;4.10;1.70;;;;;;;-144.05;54.12;56927.41;5049381;28;20075;-80
2023/10/16 12:22:20;;;;;;;7.97;2.28;;;;;;;-144.05;54.09;56961.41;5032570;28;20021;-80
2023/10/16 12:24:47;;;;;;;5.60;2.03;;;12.90;99.90;;;-144.05;53.95;56929.53;5050511;28;20107;-79
2023/10/16 12:27:15;;;;;;;6.88;2.72;;;9.40;99.90;;;-144.05;54.33;56918.94;5050012;28;20044;-79
2023/10/16 12:29:44;;;;;;;8.43;2.53;;;13.30;99.90;;;-144.05;54.15;56944.41;5049943;28;20383;-79
2023/10/16 12:32:10;;;;;;;3.70;2.38;;;;;;;-144.05;53.47;56948.66;5046897;28;20036;-80
2023/10/16 12:34:36;;;;;;;9.18;2.42;;;9.50;99.90;;;-144.05;52.79;56978.41;5033143;28;20037;-78
2023/10/16 12:37:06;;;;;;;9.07;3.45;;;9.20;99.90;;;-144.05;52.82;56957.16;5049831;28;20425;-78
2023/10/16 12:39:35;;;;;;;61.80;18.63;;;;;;;-144.05;53.67;56963.53;5052024;28;20025;-78